createdAt,value
2023-02-24T00:00:30.102Z,37.00
2023-02-24T00:02:01.093Z,35.63
2023-02-24T00:03:23.906Z,35.47
2023-02-24T00:04:51.839Z,32.20
2023-02-24T00:06:14.396Z,35.67
2023-02-24T00:07:37.771Z,37.55
2023-02-24T00:09:00.210Z,50.05
2023-02-24T00:10:25.284Z,41.88
2023-02-24T00:11:54.232Z,34.35
2023-02-24T00:13:22.235Z,36.65
2023-02-24T00:14:46.987Z,40.25
2023-02-24T00:16:09.493Z,39.70
2023-02-24T00:17:33.124Z,33.50
2023-02-24T00:18:55.633Z,34.72
2023-02-24T00:20:20.003Z,38.72
2023-02-24T00:21:44.186Z,34.08
2023-02-24T00:23:09.770Z,37.65
2023-02-24T00:24:33.257Z,38.30
2023-02-24T00:25:59.976Z,34.33
2023-02-24T00:27:24.764Z,35.88
2023-02-24T00:28:48.619Z,34.47
2023-02-24T00:30:12.169Z,33.38
2023-02-24T00:31:39.545Z,29.30
2023-02-24T00:33:03.319Z,31.48
2023-02-24T00:34:26.903Z,35.42
2023-02-24T00:35:49.514Z,27.52
2023-02-24T00:37:15.431Z,30.88
2023-02-24T00:38:38.582Z,31.67
2023-02-24T00:40:01.957Z,27.05
2023-02-24T00:41:29.282Z,24.67
2023-02-24T00:42:54.081Z,25.67
2023-02-24T00:44:17.514Z,34.72
2023-02-24T00:45:40.340Z,25.70
2023-02-24T00:47:04.926Z,24.77
2023-02-24T00:48:28.368Z,26.42
2023-02-24T00:49:51.968Z,27.40
2023-02-24T00:51:16.673Z,20.05
2023-02-24T00:52:40.066Z,19.45
2023-02-24T00:54:03.919Z,34.70
2023-02-24T00:55:27.844Z,24.38
2023-02-24T00:56:51.418Z,16.40
2023-02-24T00:58:15.195Z,20.45
2023-02-24T00:59:39.074Z,27.15
2023-02-24T01:01:02.266Z,17.98
2023-02-24T01:02:26.640Z,16.25
2023-02-24T01:03:49.617Z,15.02
2023-02-24T01:05:14.994Z,28.85
2023-02-24T01:06:40.235Z,16.58
2023-02-24T01:08:03.612Z,17.55
2023-02-24T01:09:27.194Z,20.48
2023-02-24T01:11:18.956Z,19.90
2023-02-24T01:12:50.676Z,15.75
2023-02-24T01:14:16.314Z,15.43
2023-02-24T01:15:39.761Z,18.75
2023-02-24T01:17:02.511Z,11.90
2023-02-24T01:18:27.522Z,14.88
2023-02-24T01:19:50.490Z,12.02
2023-02-24T01:21:14.536Z,16.25
2023-02-24T01:22:39.693Z,14.07
2023-02-24T01:24:02.402Z,14.25
2023-02-24T01:25:25.949Z,11.93
2023-02-24T01:26:48.334Z,12.77
2023-02-24T01:28:12.255Z,9.90
2023-02-24T01:29:39.627Z,13.88
2023-02-24T01:31:05.046Z,14.68
2023-02-24T01:32:31.860Z,17.08
2023-02-24T01:33:56.468Z,8.70
2023-02-24T01:35:18.892Z,13.30
2023-02-24T01:36:44.230Z,11.27
2023-02-24T01:38:07.634Z,9.93
2023-02-24T01:39:30.161Z,7.60
2023-02-24T01:40:59.606Z,13.27
2023-02-24T01:42:23.372Z,10.55
2023-02-24T01:44:01.991Z,13.85
2023-02-24T01:45:29.624Z,10.35
2023-02-24T01:46:53.248Z,18.42
2023-02-24T01:48:17.686Z,13.88
2023-02-24T01:49:42.262Z,23.08
2023-02-24T01:51:08.274Z,15.65
2023-02-24T01:52:33.223Z,17.92
2023-02-24T01:53:56.758Z,21.88
2023-02-24T01:55:23.836Z,14.02
2023-02-24T01:56:49.656Z,14.98
2023-02-24T01:58:17.443Z,17.05
2023-02-24T01:59:39.844Z,13.75
2023-02-24T02:01:09.112Z,16.15
2023-02-24T02:02:31.635Z,16.00
2023-02-24T02:03:58.533Z,13.80
2023-02-24T02:05:21.226Z,16.35
2023-02-24T02:06:45.311Z,20.95
2023-02-24T02:08:09.219Z,9.13
2023-02-24T02:09:33.452Z,11.50
2023-02-24T02:10:58.950Z,9.90
2023-02-24T02:12:22.093Z,13.52
2023-02-24T02:13:49.921Z,15.38
2023-02-24T02:15:13.947Z,18.67
2023-02-24T02:16:58.988Z,17.85
2023-02-24T02:18:29.477Z,10.80
2023-02-24T02:20:31.214Z,12.20
2023-02-24T02:22:05.695Z,9.02
2023-02-24T02:24:00.219Z,9.38
2023-02-24T02:25:33.816Z,13.90
2023-02-24T02:27:29.349Z,12.23
2023-02-24T02:29:12.982Z,8.35
2023-02-24T02:30:51.909Z,12.75
2023-02-24T02:32:38.292Z,8.38
2023-02-24T02:34:32.076Z,6.70
2023-02-24T02:36:00.560Z,13.05
2023-02-24T02:37:30.098Z,9.85
2023-02-24T02:38:57.497Z,9.07
2023-02-24T02:40:25.540Z,10.43
2023-02-24T02:41:54.149Z,11.20
2023-02-24T02:43:24.605Z,10.77
2023-02-24T02:44:55.962Z,4.72
2023-02-24T02:46:34.575Z,10.23
2023-02-24T02:48:02.577Z,8.68
2023-02-24T02:49:30.432Z,8.90
2023-02-24T02:50:56.916Z,6.10
2023-02-24T02:52:26.700Z,7.18
2023-02-24T02:53:56.324Z,5.13
2023-02-24T02:55:24.131Z,6.85
2023-02-24T02:56:50.593Z,7.50
2023-02-24T02:58:16.372Z,18.70
2023-02-24T02:59:44.213Z,7.80
2023-02-24T03:01:08.367Z,6.18
2023-02-24T03:02:38.222Z,9.27
2023-02-24T03:04:05.757Z,7.75
2023-02-24T03:05:31.800Z,6.68
2023-02-24T03:06:58.344Z,6.35
2023-02-24T03:08:25.724Z,10.43
2023-02-24T03:09:51.735Z,10.27
2023-02-24T03:11:17.149Z,6.35
2023-02-24T03:12:41.014Z,8.85
2023-02-24T03:14:05.687Z,7.38
2023-02-24T03:15:30.307Z,8.32
2023-02-24T03:16:54.764Z,5.20
2023-02-24T03:18:19.294Z,5.63
2023-02-24T03:19:43.792Z,6.13
2023-02-24T03:21:09.366Z,13.77
2023-02-24T03:22:36.924Z,12.02
2023-02-24T03:24:01.498Z,7.68
2023-02-24T03:25:30.150Z,6.88
2023-02-24T03:26:56.872Z,3.05
2023-02-24T03:28:23.534Z,3.42
2023-02-24T03:29:52.673Z,8.45
2023-02-24T03:31:22.587Z,8.00
2023-02-24T03:32:51.388Z,6.97
2023-02-24T03:34:19.671Z,10.90
2023-02-24T03:35:42.390Z,7.85
2023-02-24T03:37:05.851Z,9.27
2023-02-24T03:38:31.909Z,7.80
2023-02-24T03:39:56.849Z,6.60
2023-02-24T03:41:20.527Z,8.45
2023-02-24T03:42:45.370Z,7.32
2023-02-24T03:44:11.148Z,5.50
2023-02-24T03:45:37.910Z,15.57
2023-02-24T03:47:03.411Z,8.40
2023-02-24T03:48:27.284Z,4.70
2023-02-24T03:49:50.905Z,3.75
2023-02-24T03:51:16.951Z,18.70
2023-02-24T03:52:46.937Z,8.65
2023-02-24T03:54:21.349Z,6.68
2023-02-24T03:55:58.661Z,15.63
2023-02-24T03:57:29.060Z,19.17
2023-02-24T03:59:03.218Z,11.15
2023-02-24T04:00:35.042Z,9.52
2023-02-24T04:02:00.252Z,11.57
2023-02-24T04:03:30.116Z,13.95
2023-02-24T04:04:57.859Z,10.73
2023-02-24T04:06:25.702Z,11.02
2023-02-24T04:07:53.899Z,10.98
2023-02-24T04:09:23.987Z,13.73
2023-02-24T04:10:53.428Z,9.05
2023-02-24T04:12:19.868Z,9.88
2023-02-24T04:13:45.876Z,9.07
2023-02-24T04:15:15.640Z,14.93
2023-02-24T04:16:45.204Z,9.07
2023-02-24T04:18:12.403Z,12.95
2023-02-24T04:19:38.482Z,11.40
2023-02-24T04:21:03.357Z,7.38
2023-02-24T04:22:26.864Z,10.52
2023-02-24T04:23:50.648Z,8.35
2023-02-24T04:25:16.273Z,5.47
2023-02-24T04:26:41.331Z,8.23
2023-02-24T04:28:07.982Z,7.70
2023-02-24T04:29:35.610Z,15.43
2023-02-24T04:31:05.876Z,13.88
2023-02-24T04:32:31.301Z,10.88
2023-02-24T04:33:54.810Z,9.82
2023-02-24T04:35:22.775Z,13.95
2023-02-24T04:36:49.428Z,6.93
2023-02-24T04:38:14.164Z,13.25
2023-02-24T04:39:38.422Z,3.45
2023-02-24T04:41:04.015Z,4.38
2023-02-24T04:42:26.527Z,12.52
2023-02-24T04:43:53.455Z,10.95
2023-02-24T04:45:17.511Z,7.60
2023-02-24T04:46:40.913Z,7.88
2023-02-24T04:48:05.352Z,8.90
2023-02-24T04:49:28.184Z,10.05
2023-02-24T04:50:55.056Z,8.18
2023-02-24T04:52:20.700Z,7.10
2023-02-24T04:53:43.212Z,6.25
2023-02-24T04:55:10.212Z,8.75
2023-02-24T04:56:36.565Z,7.88
2023-02-24T04:57:59.834Z,11.73
2023-02-24T04:59:25.026Z,13.20
2023-02-24T05:00:52.487Z,2.63
2023-02-24T05:02:19.684Z,8.98
2023-02-24T05:03:43.314Z,14.07
2023-02-24T05:05:08.463Z,7.47
2023-02-24T05:06:31.870Z,9.40
2023-02-24T05:07:55.009Z,4.70
2023-02-24T05:09:19.598Z,9.50
2023-02-24T05:10:44.846Z,7.25
2023-02-24T05:12:09.685Z,4.38
2023-02-24T05:13:37.522Z,8.27
2023-02-24T05:15:01.968Z,9.18
2023-02-24T05:16:28.742Z,5.70
2023-02-24T05:17:54.036Z,11.20
2023-02-24T05:19:36.545Z,7.63
2023-02-24T05:21:18.854Z,12.75
2023-02-24T05:22:42.452Z,5.82
2023-02-24T05:24:07.057Z,5.97
2023-02-24T05:25:29.646Z,10.50
2023-02-24T05:26:58.048Z,5.20
2023-02-24T05:28:23.127Z,5.80
2023-02-24T05:29:47.492Z,9.20
2023-02-24T05:31:14.897Z,3.88
2023-02-24T05:32:38.614Z,9.15
2023-02-24T05:34:02.657Z,9.27
2023-02-24T05:35:27.044Z,5.28
2023-02-24T05:36:49.689Z,9.00
2023-02-24T05:38:14.009Z,4.88
2023-02-24T05:39:36.495Z,9.00
2023-02-24T05:41:07.133Z,6.28
2023-02-24T05:42:34.861Z,5.28
2023-02-24T05:44:04.681Z,7.50
2023-02-24T05:45:30.265Z,4.85
2023-02-24T05:46:58.952Z,2.70
2023-02-24T05:48:23.573Z,5.30
2023-02-24T05:49:48.012Z,5.00
2023-02-24T05:51:12.462Z,6.40
2023-02-24T05:52:39.626Z,4.22
2023-02-24T05:54:04.624Z,2.40
2023-02-24T05:55:27.970Z,9.68
2023-02-24T05:56:51.440Z,2.33
2023-02-24T05:58:16.852Z,14.38
2023-02-24T05:59:42.012Z,4.95
2023-02-24T06:01:18.022Z,11.15
2023-02-24T06:02:49.259Z,9.23
2023-02-24T06:04:20.940Z,4.35
2023-02-24T06:05:44.428Z,8.52
2023-02-24T06:07:12.757Z,6.03
2023-02-24T06:08:42.213Z,5.03
2023-02-24T06:10:10.350Z,6.78
2023-02-24T06:11:34.140Z,10.18
2023-02-24T06:12:56.565Z,4.88
2023-02-24T06:14:21.450Z,8.27
2023-02-24T06:15:50.410Z,10.43
2023-02-24T06:17:15.051Z,5.22
2023-02-24T06:18:38.640Z,2.08
2023-02-24T06:20:02.036Z,4.53
2023-02-24T06:21:29.199Z,5.50
2023-02-24T06:22:54.235Z,7.30
2023-02-24T06:24:18.571Z,8.77
2023-02-24T06:25:42.113Z,1.67
2023-02-24T06:27:10.452Z,7.20
2023-02-24T06:28:34.477Z,9.07
2023-02-24T06:29:57.945Z,3.92
2023-02-24T06:31:22.031Z,4.65
2023-02-24T06:32:51.198Z,4.75
2023-02-24T06:34:14.852Z,7.35
2023-02-24T06:35:38.893Z,3.78
2023-02-24T06:37:03.404Z,2.75
2023-02-24T06:38:28.201Z,2.42
2023-02-24T06:39:50.612Z,7.00
2023-02-24T06:41:14.181Z,3.70
2023-02-24T06:42:36.581Z,3.85
2023-02-24T06:44:00.080Z,8.90
2023-02-24T06:45:26.210Z,10.02
2023-02-24T06:46:51.038Z,6.57
2023-02-24T06:48:14.475Z,3.58
2023-02-24T06:49:38.010Z,8.32
2023-02-24T06:51:05.042Z,8.55
2023-02-24T06:52:29.816Z,7.22
2023-02-24T06:53:53.720Z,4.13
2023-02-24T06:55:25.804Z,3.08
2023-02-24T06:56:49.323Z,4.05
2023-02-24T06:58:17.744Z,5.10
2023-02-24T06:59:41.438Z,3.78
2023-02-24T07:01:07.231Z,3.33
2023-02-24T07:02:39.598Z,8.95
2023-02-24T07:04:26.391Z,6.05
2023-02-24T07:05:54.376Z,2.70
2023-02-24T07:07:19.702Z,4.40
2023-02-24T07:08:44.064Z,9.95
2023-02-24T07:10:09.284Z,10.05
2023-02-24T07:11:33.832Z,7.25
2023-02-24T07:12:58.634Z,3.83
2023-02-24T07:14:23.556Z,3.50
2023-02-24T07:15:49.404Z,7.00
2023-02-24T07:17:14.684Z,4.53
2023-02-24T07:18:40.588Z,12.77
2023-02-24T07:20:11.592Z,5.20
2023-02-24T07:21:39.633Z,11.43
2023-02-24T07:23:03.267Z,3.95
2023-02-24T07:24:32.969Z,4.70
2023-02-24T07:25:58.448Z,13.05
2023-02-24T07:27:23.227Z,6.65
2023-02-24T07:28:48.029Z,5.68
2023-02-24T07:30:12.867Z,5.35
2023-02-24T07:31:37.897Z,8.23
2023-02-24T07:33:03.753Z,5.57
2023-02-24T07:34:28.725Z,4.07
2023-02-24T07:35:54.745Z,3.47
2023-02-24T07:37:20.294Z,4.07
2023-02-24T07:38:44.809Z,8.85
2023-02-24T07:40:10.171Z,5.72
2023-02-24T07:41:33.642Z,4.20
2023-02-24T07:42:57.245Z,5.63
2023-02-24T07:44:21.706Z,3.60
2023-02-24T07:45:47.374Z,5.03
2023-02-24T07:47:10.944Z,9.45
2023-02-24T07:48:33.376Z,6.60
2023-02-24T07:49:58.098Z,4.47
2023-02-24T07:51:22.521Z,6.65
2023-02-24T07:52:47.917Z,5.03
2023-02-24T07:54:15.338Z,5.35
2023-02-24T07:55:38.702Z,4.60
2023-02-24T07:57:02.074Z,8.02
2023-02-24T07:58:25.546Z,7.15
2023-02-24T07:59:48.934Z,8.57
2023-02-24T08:01:22.823Z,14.68
2023-02-24T08:02:47.533Z,5.35
2023-02-24T08:04:15.973Z,11.80
2023-02-24T08:05:43.514Z,5.40
2023-02-24T08:07:14.268Z,6.10
2023-02-24T08:08:56.742Z,13.73
2023-02-24T08:10:29.712Z,5.55
2023-02-24T08:11:53.935Z,2.10
2023-02-24T08:13:19.127Z,5.80
2023-02-24T08:14:44.536Z,2.95
2023-02-24T08:16:08.717Z,9.60
2023-02-24T08:17:33.330Z,14.35
2023-02-24T08:18:57.781Z,11.90
2023-02-24T08:20:29.573Z,3.80
2023-02-24T08:21:56.454Z,7.35
2023-02-24T08:23:19.912Z,7.72
2023-02-24T08:24:43.548Z,6.60
2023-02-24T08:26:12.602Z,5.38
2023-02-24T08:27:39.150Z,5.78
2023-02-24T08:29:07.382Z,6.38
2023-02-24T08:30:30.808Z,2.92
2023-02-24T08:31:54.315Z,5.90
2023-02-24T08:33:22.192Z,4.97
2023-02-24T08:34:45.682Z,3.45
2023-02-24T08:36:09.098Z,3.60
2023-02-24T08:37:39.531Z,2.53
2023-02-24T08:39:04.077Z,10.00
2023-02-24T08:40:38.124Z,8.75
2023-02-24T08:42:01.571Z,3.50
2023-02-24T08:43:34.180Z,4.10
2023-02-24T08:44:58.805Z,5.82
2023-02-24T08:46:26.352Z,3.63
2023-02-24T08:47:53.729Z,4.63
2023-02-24T08:49:18.234Z,2.38
2023-02-24T08:50:40.633Z,9.30
2023-02-24T08:52:07.171Z,7.60
2023-02-24T08:53:31.544Z,4.35
2023-02-24T08:54:59.111Z,13.10
2023-02-24T08:56:24.908Z,4.93
2023-02-24T08:57:53.611Z,14.57
2023-02-24T08:59:37.818Z,6.03
2023-02-24T09:01:03.875Z,12.30
2023-02-24T09:02:30.873Z,6.82
2023-02-24T09:03:55.697Z,13.13
2023-02-24T09:05:19.082Z,13.63
2023-02-24T09:06:44.870Z,10.50
2023-02-24T09:08:08.302Z,10.20
2023-02-24T09:09:37.101Z,7.15
2023-02-24T09:11:01.909Z,8.75
2023-02-24T09:12:28.755Z,7.10
2023-02-24T09:13:58.209Z,5.88
2023-02-24T09:15:25.481Z,5.55
2023-02-24T09:17:03.154Z,5.75
2023-02-24T09:18:30.256Z,9.68
2023-02-24T09:20:12.971Z,9.55
2023-02-24T09:22:10.385Z,6.13
2023-02-24T09:23:45.974Z,9.57
2023-02-24T09:25:18.011Z,8.50
2023-02-24T09:26:44.348Z,10.02
2023-02-24T09:28:17.214Z,7.35
2023-02-24T09:29:49.282Z,6.53
2023-02-24T09:31:16.955Z,11.45
2023-02-24T09:32:39.542Z,9.00
2023-02-24T09:34:04.038Z,7.72
2023-02-24T09:35:30.979Z,5.45
2023-02-24T09:37:03.360Z,8.73
2023-02-24T09:38:47.101Z,9.35
2023-02-24T09:40:30.551Z,8.27
2023-02-24T09:41:56.597Z,5.18
2023-02-24T09:43:21.854Z,4.50
2023-02-24T09:44:48.207Z,8.63
2023-02-24T09:46:15.366Z,12.30
2023-02-24T09:47:56.914Z,7.65
2023-02-24T09:49:24.734Z,6.30
2023-02-24T09:51:03.827Z,3.97
2023-02-24T09:52:39.791Z,10.27
2023-02-24T09:54:04.555Z,8.75
2023-02-24T09:55:35.988Z,4.57
2023-02-24T09:57:09.163Z,3.67
2023-02-24T09:58:47.676Z,6.80
2023-02-24T10:00:25.728Z,12.32
2023-02-24T10:01:53.643Z,10.65
2023-02-24T10:03:21.082Z,11.95
2023-02-24T10:05:07.395Z,5.72
2023-02-24T10:06:35.329Z,7.20
2023-02-24T10:08:00.624Z,8.90
2023-02-24T10:09:27.130Z,16.77
2023-02-24T10:11:06.972Z,3.72
2023-02-24T10:12:34.009Z,4.25
2023-02-24T10:14:03.398Z,12.05
2023-02-24T10:15:47.854Z,8.75
2023-02-24T10:17:30.487Z,3.38
2023-02-24T10:19:11.728Z,10.90
2023-02-24T10:20:40.448Z,2.92
2023-02-24T10:22:08.860Z,7.60
2023-02-24T10:23:45.103Z,11.82
2023-02-24T10:25:23.462Z,5.93
2023-02-24T10:27:00.877Z,8.70
2023-02-24T10:28:37.334Z,5.50
2023-02-24T10:30:11.028Z,3.63
2023-02-24T10:31:42.420Z,7.22
2023-02-24T10:33:06.502Z,12.70
2023-02-24T10:34:32.686Z,10.90
2023-02-24T10:36:10.512Z,4.90
2023-02-24T10:37:34.402Z,11.98
2023-02-24T10:39:03.988Z,8.63
2023-02-24T10:40:44.661Z,9.50
2023-02-24T10:42:19.661Z,4.10
2023-02-24T10:43:49.418Z,5.47
2023-02-24T10:45:18.082Z,8.13
2023-02-24T10:46:43.360Z,7.07
2023-02-24T10:48:09.391Z,2.55
2023-02-24T10:49:43.895Z,7.95
2023-02-24T10:51:20.011Z,5.30
2023-02-24T10:53:11.070Z,7.00
2023-02-24T10:54:54.877Z,7.05
2023-02-24T10:56:27.743Z,30.23
2023-02-24T10:58:00.626Z,4.68
2023-02-24T10:59:58.301Z,12.95
2023-02-24T11:01:40.520Z,14.95
2023-02-24T11:03:10.417Z,6.25
2023-02-24T11:04:53.883Z,10.60
2023-02-24T11:06:42.985Z,9.55
2023-02-24T11:08:10.938Z,10.75
2023-02-24T11:09:35.261Z,5.90
2023-02-24T11:11:07.062Z,9.85
2023-02-24T11:12:47.104Z,5.30
2023-02-24T11:14:35.026Z,7.40
2023-02-24T11:16:16.166Z,7.32
2023-02-24T11:17:47.781Z,8.48
2023-02-24T11:19:12.904Z,4.38
2023-02-24T11:20:48.419Z,2.85
2023-02-24T11:22:16.489Z,5.55
2023-02-24T11:23:43.367Z,5.70
2023-02-24T11:25:10.107Z,6.43
2023-02-24T11:26:36.907Z,7.07
2023-02-24T11:28:00.408Z,9.18
2023-02-24T11:29:38.621Z,5.07
2023-02-24T11:31:10.330Z,7.68
2023-02-24T11:32:42.755Z,6.72
2023-02-24T11:34:10.016Z,2.42
2023-02-24T11:35:37.839Z,11.93
2023-02-24T11:37:09.072Z,3.60
2023-02-24T11:38:40.712Z,6.55
2023-02-24T11:40:07.442Z,7.78
2023-02-24T11:41:36.204Z,6.28
2023-02-24T11:43:02.176Z,8.85
2023-02-24T11:44:31.321Z,3.63
2023-02-24T11:45:57.743Z,6.20
2023-02-24T11:47:26.864Z,4.47
2023-02-24T11:48:55.184Z,5.93
2023-02-24T11:50:30.956Z,7.63
2023-02-24T11:51:55.245Z,9.02
2023-02-24T11:53:30.592Z,12.13
2023-02-24T11:54:56.181Z,12.27
2023-02-24T11:56:24.021Z,5.88
2023-02-24T11:57:51.172Z,2.70
2023-02-24T11:59:19.401Z,7.10
2023-02-24T12:00:52.510Z,5.82
2023-02-24T12:02:21.002Z,13.02
2023-02-24T12:03:52.252Z,7.00
2023-02-24T12:05:18.850Z,22.98
2023-02-24T12:06:48.773Z,7.85
2023-02-24T12:08:16.133Z,11.13
2023-02-24T12:09:44.930Z,8.93
2023-02-24T12:11:11.678Z,6.88
2023-02-24T12:12:40.908Z,10.60
2023-02-24T12:14:15.688Z,8.98
2023-02-24T12:15:41.975Z,12.93
2023-02-24T12:17:18.215Z,4.82
2023-02-24T12:18:43.892Z,6.55
2023-02-24T12:20:16.566Z,3.10
2023-02-24T12:21:41.858Z,6.53
2023-02-24T12:23:15.707Z,12.68
2023-02-24T12:24:40.219Z,4.53
2023-02-24T12:26:13.458Z,9.65
2023-02-24T12:27:46.623Z,5.88
2023-02-24T12:29:34.380Z,5.18
2023-02-24T12:31:03.820Z,3.30
2023-02-24T12:32:38.627Z,3.85
2023-02-24T12:34:09.220Z,4.63
2023-02-24T12:35:40.103Z,11.43
2023-02-24T12:37:20.607Z,7.97
2023-02-24T12:38:53.108Z,14.73
2023-02-24T12:40:23.269Z,6.93
2023-02-24T12:41:58.148Z,12.45
2023-02-24T12:43:28.333Z,9.13
2023-02-24T12:44:56.266Z,9.00
2023-02-24T12:46:24.489Z,8.88
2023-02-24T12:48:03.733Z,3.92
2023-02-24T12:50:08.713Z,4.15
2023-02-24T12:51:38.041Z,6.10
2023-02-24T12:53:12.344Z,1.83
2023-02-24T12:54:39.127Z,5.20
2023-02-24T12:56:11.594Z,2.13
2023-02-24T12:57:41.954Z,6.32
2023-02-24T12:59:07.119Z,7.20
2023-02-24T13:00:37.669Z,4.50
2023-02-24T13:02:04.508Z,6.38
2023-02-24T13:03:40.333Z,6.05
2023-02-24T13:05:10.316Z,5.90
2023-02-24T13:06:51.657Z,6.50
2023-02-24T13:08:25.802Z,4.88
2023-02-24T13:09:54.225Z,6.85
2023-02-24T13:11:24.087Z,11.25
2023-02-24T13:12:52.640Z,4.78
2023-02-24T13:14:21.602Z,11.18
2023-02-24T13:15:52.166Z,7.40
2023-02-24T13:17:21.337Z,6.22
2023-02-24T13:18:46.142Z,5.03
2023-02-24T13:20:14.349Z,3.00
2023-02-24T13:21:39.982Z,6.45
2023-02-24T13:23:04.874Z,4.38
2023-02-24T13:24:28.341Z,3.20
2023-02-24T13:25:53.023Z,4.88
2023-02-24T13:27:24.716Z,5.32
2023-02-24T13:28:57.870Z,4.45
2023-02-24T13:30:32.428Z,2.92
2023-02-24T13:31:57.530Z,2.58
2023-02-24T13:33:26.538Z,6.18
2023-02-24T13:34:51.767Z,5.28
2023-02-24T13:36:21.510Z,9.88
2023-02-24T13:37:46.862Z,6.55
2023-02-24T13:39:23.365Z,5.43
2023-02-24T13:40:46.881Z,10.48
2023-02-24T13:42:24.196Z,3.83
2023-02-24T13:43:55.578Z,12.40
2023-02-24T13:45:20.998Z,6.45
2023-02-24T13:46:54.402Z,5.00
2023-02-24T13:48:31.059Z,13.15
2023-02-24T13:50:05.559Z,5.25
2023-02-24T13:51:48.935Z,8.70
2023-02-24T13:53:23.884Z,1.55
2023-02-24T13:55:01.134Z,7.10
2023-02-24T13:56:36.971Z,11.23
2023-02-24T13:58:11.148Z,4.43
2023-02-24T13:59:51.517Z,4.45
2023-02-24T14:01:17.811Z,6.28
2023-02-24T14:02:44.155Z,7.18
2023-02-24T14:04:16.299Z,5.22
2023-02-24T14:05:44.407Z,8.82
2023-02-24T14:07:12.993Z,9.73
2023-02-24T14:08:43.781Z,3.78
2023-02-24T14:10:19.059Z,4.65
2023-02-24T14:11:42.984Z,6.82
2023-02-24T14:13:09.347Z,5.45
2023-02-24T14:14:33.394Z,8.35
2023-02-24T14:15:57.564Z,8.88
2023-02-24T14:17:28.518Z,3.70
2023-02-24T14:18:56.841Z,6.82
2023-02-24T14:20:21.602Z,4.82
2023-02-24T14:21:51.771Z,9.32
2023-02-24T14:23:26.346Z,9.23
2023-02-24T14:24:49.798Z,5.32
2023-02-24T14:26:18.468Z,2.65
2023-02-24T14:27:43.558Z,5.72
2023-02-24T14:29:09.876Z,2.28
2023-02-24T14:30:36.200Z,3.33
2023-02-24T14:32:00.334Z,5.28
2023-02-24T14:33:29.626Z,2.20
2023-02-24T14:34:53.610Z,2.05
2023-02-24T14:36:19.640Z,3.40
2023-02-24T14:37:44.586Z,5.10
2023-02-24T14:39:15.997Z,4.93
2023-02-24T14:40:39.498Z,5.03
2023-02-24T14:42:13.757Z,4.07
2023-02-24T14:43:42.858Z,3.45
2023-02-24T14:45:20.018Z,3.20
2023-02-24T14:46:48.686Z,5.03
2023-02-24T14:48:24.480Z,1.80
2023-02-24T14:49:56.491Z,2.63
2023-02-24T14:51:24.754Z,2.22
2023-02-24T14:52:51.258Z,5.78
2023-02-24T14:54:21.450Z,4.47
2023-02-24T14:55:48.313Z,3.90
2023-02-24T14:57:13.820Z,2.42
2023-02-24T14:58:41.452Z,3.08
2023-02-24T15:00:11.754Z,5.97
2023-02-24T15:01:37.337Z,6.50
2023-02-24T15:03:06.501Z,2.70
2023-02-24T15:04:37.552Z,5.00
2023-02-24T15:06:05.866Z,2.63
2023-02-24T15:07:32.059Z,3.22
2023-02-24T15:09:00.294Z,2.80
2023-02-24T15:10:27.628Z,2.22
2023-02-24T15:11:53.229Z,1.77
2023-02-24T15:13:19.788Z,3.17
2023-02-24T15:14:44.875Z,1.85
2023-02-24T15:16:15.883Z,1.88
2023-02-24T15:17:41.467Z,2.15
2023-02-24T15:19:04.481Z,4.13
2023-02-24T15:20:31.718Z,1.95
2023-02-24T15:21:55.611Z,3.25
2023-02-24T15:23:32.045Z,1.88
2023-02-24T15:25:10.785Z,1.90
2023-02-24T15:26:35.906Z,1.23
2023-02-24T15:28:00.647Z,4.60
2023-02-24T15:29:27.040Z,2.28
2023-02-24T15:31:02.512Z,2.45
2023-02-24T15:32:27.997Z,1.40
2023-02-24T15:33:56.143Z,1.52
2023-02-24T15:35:24.345Z,1.95
2023-02-24T15:36:47.962Z,1.33
2023-02-24T15:38:23.927Z,1.55
2023-02-24T15:39:48.195Z,3.38
2023-02-24T15:41:14.115Z,4.63
2023-02-24T15:42:37.574Z,4.82
2023-02-24T15:44:01.413Z,1.20
2023-02-24T15:45:29.300Z,1.17
2023-02-24T15:46:52.840Z,3.83
2023-02-24T15:48:22.544Z,1.38
2023-02-24T15:49:45.948Z,2.75
2023-02-24T15:51:09.482Z,1.52
2023-02-24T15:52:32.870Z,4.85
2023-02-24T15:53:56.537Z,0.70
2023-02-24T15:55:20.456Z,2.95
2023-02-24T15:56:45.484Z,1.98
2023-02-24T15:58:12.612Z,7.20
2023-02-24T15:59:35.993Z,3.65
2023-02-24T16:00:59.448Z,5.57
2023-02-24T16:02:24.687Z,2.83
2023-02-24T16:03:49.586Z,3.65
2023-02-24T16:05:15.307Z,3.33
2023-02-24T16:06:42.158Z,1.65
2023-02-24T16:08:07.112Z,2.15
2023-02-24T16:09:33.807Z,5.82
2023-02-24T16:10:57.918Z,1.67
2023-02-24T16:12:24.559Z,3.55
2023-02-24T16:13:53.057Z,5.15
2023-02-24T16:15:20.434Z,1.70
2023-02-24T16:16:44.140Z,1.33
2023-02-24T16:18:14.078Z,1.33
2023-02-24T16:19:39.664Z,1.90
2023-02-24T16:21:03.909Z,3.67
2023-02-24T16:22:27.670Z,1.50
2023-02-24T16:23:51.222Z,2.08
2023-02-24T16:25:17.208Z,1.42
2023-02-24T16:26:41.496Z,1.48
2023-02-24T16:28:06.467Z,2.83
2023-02-24T16:29:29.904Z,3.67
2023-02-24T16:30:53.770Z,2.08
2023-02-24T16:32:17.697Z,1.80
2023-02-24T16:33:53.634Z,2.20
2023-02-24T16:35:18.393Z,4.15
2023-02-24T16:36:42.138Z,4.35
2023-02-24T16:38:05.739Z,2.72
2023-02-24T16:39:29.538Z,2.33
2023-02-24T16:40:53.069Z,3.22
2023-02-24T16:42:16.671Z,4.75
2023-02-24T16:43:41.650Z,5.10
2023-02-24T16:45:05.473Z,3.05
2023-02-24T16:46:34.017Z,3.22
2023-02-24T16:48:02.558Z,1.73
2023-02-24T16:49:26.284Z,2.55
2023-02-24T16:50:50.190Z,2.03
2023-02-24T16:52:14.495Z,3.45
2023-02-24T16:53:37.943Z,2.55
2023-02-24T16:55:02.063Z,3.25
2023-02-24T16:56:25.582Z,6.25
2023-02-24T16:57:49.010Z,4.30
2023-02-24T16:59:13.833Z,3.92
2023-02-24T17:00:37.686Z,2.72
2023-02-24T17:02:02.169Z,2.22
2023-02-24T17:03:27.828Z,6.70
2023-02-24T17:04:51.892Z,3.42
2023-02-24T17:06:15.317Z,4.30
2023-02-24T17:07:39.278Z,3.85
2023-02-24T17:09:03.034Z,3.00
2023-02-24T17:10:28.045Z,4.00
2023-02-24T17:11:51.618Z,6.40
2023-02-24T17:13:16.634Z,3.42
2023-02-24T17:14:41.480Z,2.58
2023-02-24T17:16:05.257Z,7.68
2023-02-24T17:17:28.798Z,3.08
2023-02-24T17:18:52.217Z,4.80
2023-02-24T17:20:15.834Z,5.20
2023-02-24T17:21:42.840Z,4.70
2023-02-24T17:23:06.340Z,7.28
2023-02-24T17:24:29.850Z,3.90
2023-02-24T17:25:55.574Z,4.43
2023-02-24T17:27:20.712Z,3.85
2023-02-24T17:28:44.174Z,4.15
2023-02-24T17:30:11.236Z,4.53
2023-02-24T17:31:34.845Z,5.90
2023-02-24T17:32:59.223Z,5.78
2023-02-24T17:34:24.150Z,5.30
2023-02-24T17:35:48.477Z,5.43
2023-02-24T17:37:11.855Z,3.78
2023-02-24T17:38:35.362Z,4.82
2023-02-24T17:39:58.817Z,3.72
2023-02-24T17:41:22.229Z,8.20
2023-02-24T17:42:45.619Z,4.38
2023-02-24T17:44:08.080Z,7.38
2023-02-24T17:45:33.825Z,5.90
2023-02-24T17:46:57.225Z,4.10
2023-02-24T17:48:20.895Z,5.30
2023-02-24T17:49:44.312Z,6.38
2023-02-24T17:51:08.018Z,5.38
2023-02-24T17:52:31.904Z,5.55
2023-02-24T17:53:55.823Z,7.28
2023-02-24T17:55:20.402Z,4.70
2023-02-24T17:56:43.904Z,7.10
2023-02-24T17:58:06.324Z,6.55
2023-02-24T17:59:29.722Z,3.45
2023-02-24T18:00:54.912Z,5.55
2023-02-24T18:02:19.525Z,9.48
2023-02-24T18:03:43.017Z,7.65
2023-02-24T18:05:06.932Z,6.85
2023-02-24T18:06:29.610Z,7.43
2023-02-24T18:07:53.528Z,10.48
2023-02-24T18:09:16.923Z,7.13
2023-02-24T18:10:40.323Z,7.43
2023-02-24T18:12:05.883Z,9.05
2023-02-24T18:13:30.340Z,8.55
2023-02-24T18:15:07.207Z,9.68
2023-02-24T18:16:32.948Z,8.63
2023-02-24T18:17:56.389Z,7.78
2023-02-24T18:19:20.496Z,7.90
2023-02-24T18:20:44.276Z,8.52
2023-02-24T18:22:08.040Z,8.77
2023-02-24T18:23:31.775Z,5.38
2023-02-24T18:24:55.253Z,9.50
2023-02-24T18:26:18.758Z,5.82
2023-02-24T18:27:42.203Z,6.15
2023-02-24T18:29:05.825Z,5.63
2023-02-24T18:30:29.312Z,7.35
2023-02-24T18:31:54.172Z,6.00
2023-02-24T18:33:16.805Z,8.80
2023-02-24T18:34:41.999Z,7.63
2023-02-24T18:36:05.738Z,9.45
2023-02-24T18:37:29.158Z,6.57
2023-02-24T18:38:52.557Z,11.25
2023-02-24T18:40:16.338Z,8.18
2023-02-24T18:41:38.735Z,8.35
2023-02-24T18:43:02.128Z,9.55
2023-02-24T18:44:26.148Z,9.77
2023-02-24T18:45:49.753Z,7.70
2023-02-24T18:47:14.804Z,6.38
2023-02-24T18:48:40.101Z,6.50
2023-02-24T18:50:03.574Z,7.60
2023-02-24T18:51:28.937Z,8.70
2023-02-24T18:52:52.458Z,10.88
2023-02-24T18:54:15.970Z,15.20
2023-02-24T18:55:39.421Z,10.10
2023-02-24T18:57:03.142Z,8.48
2023-02-24T18:58:26.602Z,7.95
2023-02-24T18:59:51.450Z,8.05
2023-02-24T19:01:16.137Z,12.18
2023-02-24T19:02:41.857Z,5.70
2023-02-24T19:04:06.062Z,8.75
2023-02-24T19:05:37.854Z,7.93
2023-02-24T19:07:02.046Z,6.57
2023-02-24T19:08:25.737Z,8.60
2023-02-24T19:09:49.166Z,8.25
2023-02-24T19:11:13.576Z,11.73
2023-02-24T19:12:37.344Z,10.30
2023-02-24T19:14:01.838Z,10.43
2023-02-24T19:15:27.636Z,8.60
2023-02-24T19:16:51.035Z,8.30